createdAt,value
2023-05-11T05:50:47.089Z,100.00
2023-05-11T05:53:13.918Z,100.00
2023-05-11T05:55:40.817Z,100.00
2023-05-11T05:58:07.644Z,100.00
2023-05-11T06:00:35.915Z,100.00
2023-05-11T06:03:02.936Z,100.00
2023-05-11T06:05:29.877Z,100.00
2023-05-11T06:08:09.162Z,100.00
2023-05-11T06:10:37.340Z,100.00
2023-05-11T06:13:04.171Z,100.00
2023-05-11T06:15:31.099Z,100.00
2023-05-11T06:17:58.006Z,100.00
2023-05-11T06:20:25.002Z,100.00
2023-05-11T06:22:51.825Z,100.00
2023-05-11T06:25:18.702Z,100.00
2023-05-11T06:27:45.514Z,100.00
2023-05-11T06:30:12.635Z,100.00
2023-05-11T06:32:39.461Z,100.00
2023-05-11T06:35:06.799Z,100.00
2023-05-11T06:37:33.661Z,100.00
2023-05-11T06:40:00.474Z,100.00
2023-05-11T06:42:27.454Z,100.00
2023-05-11T06:44:54.259Z,100.00
2023-05-11T06:47:21.275Z,100.00
2023-05-11T06:49:48.639Z,100.00
2023-05-11T06:52:15.532Z,100.00
2023-05-11T06:54:42.430Z,100.00
2023-05-11T06:57:09.235Z,100.00
2023-05-11T06:59:36.584Z,100.00
2023-05-11T07:02:03.449Z,100.00
2023-05-11T07:04:30.328Z,100.00
2023-05-11T07:06:57.268Z,100.00
2023-05-11T07:09:24.183Z,100.00
2023-05-11T07:11:52.303Z,100.00
2023-05-11T07:14:19.353Z,100.00
2023-05-11T07:16:46.705Z,100.00
2023-05-11T07:19:13.735Z,100.00
2023-05-11T07:21:40.799Z,100.00
2023-05-11T07:24:07.675Z,100.00
2023-05-11T07:26:34.573Z,100.00
2023-05-11T07:29:01.471Z,100.00
2023-05-11T07:31:30.220Z,100.00
2023-05-11T07:33:57.252Z,100.00
2023-05-11T07:36:24.198Z,100.00
2023-05-11T07:38:52.329Z,100.00
2023-05-11T07:41:19.411Z,100.00
2023-05-11T07:43:46.548Z,100.00
2023-05-11T07:46:13.500Z,100.00
2023-05-11T07:48:40.565Z,100.00
2023-05-11T07:51:07.838Z,100.00
2023-05-11T07:53:35.034Z,100.00
2023-05-11T07:56:03.828Z,100.00
2023-05-11T07:58:30.820Z,100.00
2023-05-11T08:00:57.866Z,100.00
2023-05-11T08:03:25.027Z,100.00
2023-05-11T08:05:52.196Z,100.00
2023-05-11T08:08:25.372Z,100.00
2023-05-11T08:10:52.513Z,100.00
2023-05-11T08:13:20.151Z,100.00
2023-05-11T08:15:47.162Z,100.00
2023-05-11T08:18:14.419Z,100.00
2023-05-11T08:20:42.544Z,100.00
2023-05-11T08:23:11.276Z,100.00
2023-05-11T08:25:38.182Z,100.00
2023-05-11T08:28:05.049Z,100.00
2023-05-11T08:30:31.888Z,100.00
2023-05-11T08:32:59.447Z,100.00
2023-05-11T08:35:26.628Z,100.00
2023-05-11T08:37:53.436Z,100.00
2023-05-11T08:40:20.666Z,100.00
2023-05-11T08:42:49.908Z,100.00
2023-05-11T08:45:18.489Z,100.00
2023-05-11T08:47:46.484Z,100.00
2023-05-11T08:50:13.324Z,100.00
2023-05-11T08:52:40.993Z,100.00
2023-05-11T08:55:10.980Z,100.00
2023-05-11T08:57:38.985Z,100.00
2023-05-11T09:00:07.655Z,100.00
2023-05-11T09:02:35.214Z,100.00
2023-05-11T09:05:04.590Z,100.00
2023-05-11T09:07:32.128Z,99.97
2023-05-11T09:10:02.269Z,99.84
2023-05-11T09:12:29.362Z,100.00
2023-05-11T09:15:02.031Z,100.00
2023-05-11T09:17:29.817Z,100.00
2023-05-11T09:20:09.622Z,100.00
2023-05-11T09:22:47.129Z,100.00
2023-05-11T09:25:15.299Z,100.00
2023-05-11T09:27:46.515Z,100.00
2023-05-11T09:33:02.708Z,100.00
2023-05-11T09:35:31.844Z,100.00
2023-05-11T09:38:02.960Z,100.00
2023-05-11T09:40:34.215Z,100.00
2023-05-11T09:43:02.850Z,100.00
2023-05-11T09:45:37.161Z,100.00
2023-05-11T09:48:05.616Z,100.00
2023-05-11T09:50:33.949Z,100.00
2023-05-11T09:53:01.087Z,100.00
2023-05-11T09:55:28.201Z,100.00
2023-05-11T09:57:59.894Z,100.00
2023-05-11T10:00:27.232Z,100.00
2023-05-11T10:03:04.569Z,100.00
2023-05-11T10:05:36.087Z,100.00
2023-05-11T10:08:05.339Z,100.00
2023-05-11T10:10:35.431Z,100.00
2023-05-11T10:13:03.187Z,100.00
2023-05-11T10:15:30.855Z,100.00
2023-05-11T10:18:01.390Z,100.00
2023-05-11T10:20:29.032Z,100.00
2023-05-11T10:22:56.462Z,100.00
2023-05-11T10:25:25.101Z,100.00
2023-05-11T10:27:52.641Z,100.00
2023-05-11T10:30:19.965Z,100.00
2023-05-11T10:32:47.578Z,100.00
2023-05-11T10:35:14.822Z,100.00
2023-05-11T10:37:44.611Z,100.00
2023-05-11T10:40:12.131Z,100.00
2023-05-11T10:42:54.163Z,100.00
2023-05-11T10:45:30.492Z,100.00
2023-05-11T10:48:19.417Z,97.67
2023-05-11T10:51:01.128Z,98.09
2023-05-11T10:53:54.337Z,97.81
2023-05-11T10:56:26.209Z,97.67
2023-05-11T10:59:14.247Z,97.00
2023-05-11T11:01:42.201Z,95.97
2023-05-11T11:04:10.504Z,95.95
2023-05-11T11:06:44.323Z,96.66
2023-05-11T11:09:13.755Z,97.72
2023-05-11T11:11:42.817Z,98.53
2023-05-11T11:14:10.502Z,100.00
2023-05-11T11:16:37.696Z,100.00
2023-05-11T11:19:32.289Z,100.00
2023-05-11T11:22:00.539Z,100.00
2023-05-11T11:24:39.892Z,100.00
2023-05-11T11:27:08.528Z,100.00
2023-05-11T11:29:36.295Z,100.00
2023-05-11T11:32:22.100Z,100.00
2023-05-11T11:34:49.725Z,100.00
2023-05-11T11:37:17.967Z,100.00
2023-05-11T11:39:45.025Z,100.00
2023-05-11T11:42:12.954Z,100.00
2023-05-11T11:44:41.132Z,100.00
2023-05-11T11:47:14.228Z,100.00
2023-05-11T11:49:43.029Z,100.00
2023-05-11T11:52:14.646Z,100.00
2023-05-11T11:54:43.941Z,100.00
2023-05-11T11:57:35.296Z,100.00
2023-05-11T12:00:07.413Z,100.00
2023-05-11T12:02:35.199Z,100.00
2023-05-11T12:05:12.652Z,100.00
2023-05-11T12:07:43.901Z,100.00
2023-05-11T12:10:13.518Z,100.00
2023-05-11T12:12:41.368Z,99.03
2023-05-11T12:15:08.648Z,95.59
2023-05-11T12:17:38.712Z,96.61
2023-05-11T12:20:14.055Z,96.76
2023-05-11T12:22:41.239Z,94.79
2023-05-11T12:25:09.012Z,93.90
2023-05-11T12:27:36.682Z,93.96
2023-05-11T12:30:03.729Z,94.48
2023-05-11T12:32:31.912Z,93.33
2023-05-11T12:35:02.624Z,94.00
2023-05-11T12:37:31.189Z,92.40
2023-05-11T12:39:58.737Z,88.54
2023-05-11T12:42:26.107Z,90.01
2023-05-11T12:44:53.977Z,90.98
2023-05-11T12:47:20.840Z,90.97
2023-05-11T12:49:47.713Z,92.73
2023-05-11T12:52:14.564Z,94.34
2023-05-11T12:54:43.716Z,95.47
2023-05-11T12:57:25.191Z,96.65
2023-05-11T13:00:11.946Z,98.21
2023-05-11T13:02:50.025Z,100.00
2023-05-11T13:05:19.754Z,100.00
2023-05-11T13:07:47.580Z,100.00
2023-05-11T13:10:14.535Z,100.00
2023-05-11T13:12:51.978Z,100.00
2023-05-11T13:15:20.962Z,100.00
2023-05-11T13:17:48.772Z,100.00
2023-05-11T13:20:21.670Z,100.00
2023-05-11T13:22:49.634Z,100.00
2023-05-11T13:25:17.739Z,100.00
2023-05-11T13:27:44.827Z,100.00
2023-05-11T13:30:12.598Z,100.00
2023-05-11T13:32:39.951Z,100.00
2023-05-11T13:35:07.444Z,100.00
2023-05-11T13:37:34.369Z,100.00
2023-05-11T13:40:01.360Z,100.00
2023-05-11T13:42:29.388Z,100.00
2023-05-11T13:44:56.482Z,100.00
2023-05-11T13:47:23.455Z,100.00
2023-05-11T13:49:50.295Z,100.00
2023-05-11T13:52:17.152Z,100.00
2023-05-11T13:54:44.023Z,100.00
2023-05-11T13:57:11.056Z,100.00
2023-05-11T13:59:38.078Z,100.00
2023-05-11T14:02:05.088Z,100.00
2023-05-11T14:04:32.074Z,100.00
2023-05-11T14:06:59.194Z,100.00
2023-05-11T14:09:26.368Z,100.00
2023-05-11T14:11:53.170Z,100.00
2023-05-11T14:14:19.999Z,100.00
2023-05-11T14:16:46.789Z,100.00
2023-05-11T14:19:13.914Z,100.00
2023-05-11T14:21:40.909Z,100.00
2023-05-11T14:24:12.570Z,100.00
2023-05-11T14:26:40.241Z,100.00
2023-05-11T14:29:07.685Z,100.00
2023-05-11T14:31:35.910Z,99.97
2023-05-11T14:34:04.192Z,99.90
2023-05-11T14:36:32.024Z,99.91
2023-05-11T14:38:58.967Z,99.58
2023-05-11T14:41:25.931Z,100.00
2023-05-11T14:43:52.744Z,99.76
2023-05-11T14:46:19.760Z,99.11
2023-05-11T14:48:46.672Z,99.44
2023-05-11T14:51:13.691Z,99.65
2023-05-11T14:53:40.666Z,99.53
2023-05-11T14:56:07.787Z,98.74
2023-05-11T14:58:34.637Z,97.58
2023-05-11T15:01:01.524Z,97.92
2023-05-11T15:03:28.502Z,97.79
2023-05-11T15:05:55.378Z,98.42
2023-05-11T15:08:29.572Z,97.84
2023-05-11T15:10:57.527Z,96.74
2023-05-11T15:13:24.509Z,97.35
2023-05-11T15:15:52.263Z,96.64
2023-05-11T15:18:19.533Z,95.88
2023-05-11T15:20:46.748Z,95.99
2023-05-11T15:23:17.180Z,94.96
2023-05-11T15:25:47.131Z,95.18
2023-05-11T15:28:14.324Z,96.83
2023-05-11T15:30:42.319Z,97.85
2023-05-11T15:33:10.322Z,98.26
2023-05-11T15:35:38.098Z,98.50
2023-05-11T15:38:06.618Z,98.89
2023-05-11T15:40:33.503Z,98.91
2023-05-11T15:43:00.796Z,98.61
2023-05-11T15:45:28.080Z,98.89
2023-05-11T15:47:55.026Z,98.71
2023-05-11T15:50:22.390Z,98.81
2023-05-11T15:52:49.398Z,98.96
2023-05-11T15:55:16.464Z,98.99
2023-05-11T15:57:43.292Z,99.13
2023-05-11T16:00:11.597Z,98.63
2023-05-11T16:02:38.830Z,98.89
2023-05-11T16:05:06.152Z,98.48
2023-05-11T16:07:33.038Z,98.61
2023-05-11T16:09:59.970Z,98.84
2023-05-11T16:12:26.961Z,98.45
2023-05-11T16:14:53.743Z,98.52
2023-05-11T16:17:21.047Z,98.04
2023-05-11T16:19:47.879Z,98.77
2023-05-11T16:22:14.733Z,98.04
2023-05-11T16:24:41.697Z,97.98
2023-05-11T16:27:08.569Z,98.06
2023-05-11T16:29:35.667Z,97.94
2023-05-11T16:32:02.562Z,97.48
2023-05-11T16:34:29.417Z,97.38
2023-05-11T16:36:58.600Z,96.89
2023-05-11T16:39:25.902Z,96.97
2023-05-11T16:41:52.711Z,96.38
2023-05-11T16:44:19.616Z,96.49
2023-05-11T16:46:46.446Z,95.61
2023-05-11T16:49:13.366Z,95.73
2023-05-11T16:51:40.242Z,95.63
2023-05-11T16:54:07.368Z,95.38
2023-05-11T16:56:34.164Z,95.17
2023-05-11T16:59:01.056Z,95.04
2023-05-11T17:01:28.608Z,95.06
2023-05-11T17:03:55.508Z,95.35
2023-05-11T17:06:24.109Z,95.18
2023-05-11T17:08:51.468Z,94.39
2023-05-11T17:11:18.285Z,94.36
2023-05-11T17:13:45.156Z,94.26
2023-05-11T17:16:12.187Z,94.91
2023-05-11T17:18:39.104Z,95.11
2023-05-11T17:21:06.209Z,95.34
2023-05-11T17:23:34.088Z,95.23
2023-05-11T17:26:08.110Z,95.28
2023-05-11T17:28:34.932Z,95.08
2023-05-11T17:31:08.872Z,95.02
2023-05-11T17:33:35.813Z,95.50
2023-05-11T17:36:02.778Z,95.94
2023-05-11T17:38:29.797Z,95.61
2023-05-11T17:40:59.703Z,95.93
2023-05-11T17:43:26.738Z,96.24
2023-05-11T17:45:53.614Z,95.57
2023-05-11T17:48:20.454Z,96.13
2023-05-11T17:50:47.377Z,95.83
2023-05-11T17:53:14.242Z,96.66
2023-05-11T17:55:42.712Z,96.31
2023-05-11T17:58:10.058Z,96.62
2023-05-11T18:00:40.012Z,96.22
2023-05-11T18:03:06.974Z,96.31
2023-05-11T18:05:47.497Z,96.85
2023-05-11T18:08:15.689Z,96.52
2023-05-11T18:10:42.598Z,97.07
2023-05-11T18:13:09.914Z,96.87
2023-05-11T18:15:37.370Z,96.46
2023-05-11T18:18:04.293Z,96.20
2023-05-11T18:20:31.168Z,96.65
2023-05-11T18:22:58.390Z,96.78
2023-05-11T18:25:25.274Z,97.11
2023-05-11T18:27:52.267Z,96.99
2023-05-11T18:30:19.402Z,97.62
2023-05-11T18:32:46.530Z,97.93
2023-05-11T18:35:13.425Z,97.35
2023-05-11T18:37:40.366Z,97.58
2023-05-11T18:40:08.004Z,98.36
2023-05-11T18:42:34.794Z,98.92
2023-05-11T18:45:02.102Z,100.00
2023-05-11T18:47:29.057Z,100.00
2023-05-11T18:49:57.517Z,100.00
2023-05-11T18:52:24.377Z,100.00
2023-05-11T18:54:51.313Z,100.00
2023-05-11T18:57:20.473Z,100.00
2023-05-11T18:59:51.593Z,100.00
2023-05-11T19:02:19.794Z,100.00
2023-05-11T19:04:46.625Z,100.00
2023-05-11T19:07:13.465Z,100.00
2023-05-11T19:09:40.326Z,100.00
2023-05-11T19:12:07.598Z,100.00
2023-05-11T19:14:35.040Z,100.00
2023-05-11T19:17:04.780Z,100.00
2023-05-11T19:19:31.713Z,100.00
2023-05-11T19:21:59.442Z,100.00
2023-05-11T19:24:26.356Z,100.00
2023-05-11T19:27:05.945Z,100.00
2023-05-11T19:29:33.971Z,100.00
2023-05-11T19:32:01.028Z,100.00
2023-05-11T19:34:28.318Z,100.00
2023-05-11T19:36:55.127Z,100.00
2023-05-11T19:39:21.921Z,100.00
2023-05-11T19:41:48.774Z,100.00
2023-05-11T19:44:15.608Z,100.00
2023-05-11T19:46:47.012Z,100.00
2023-05-11T19:49:15.535Z,100.00
2023-05-11T19:51:43.375Z,100.00
2023-05-11T19:54:11.230Z,100.00
2023-05-11T19:56:38.531Z,100.00
